Главная страница
METAR-TAF:

METAR-TAF

Аэропорты :

Schenectady County Airport

Скенектади, Нью-Йорк, США

широта: 42-51N, долгота: 073-56W, высота над уровнем моря: 115 м

Текущие метеонаблюдения

Эта сводка был подготовлена 8 часа и 7 минут назад, в 01:49 UTC
Штиль
Температура 20°C
Влажность 64%
Давление 1018 hPa
Видимость: 24.1 км
ясное небо

METAR: KSCH 060149Z 00000KT 15SM SKC 20/13 A3006 RMK LAST

Время: 05:56 (09:56 UTC)


TAF: отсутствует

Метеонаблюдения и прогнозы для более 4000 аэропортов (сводки METAR и TAF).

Имеющиеся станции представлены на карте желтыми и красными точками.

Чтобы увидеть название станции, наведите на нее мышь.

Затем щелкните, чтобы увидеть метеонаблюдения и метеопрогнозы.

Управление картой: чтобы увеличить масштаб, щелкните зеленые кнопки с черным крестиком; чтобы уменьшить масштаб, щелкните зеленую кнопку с тире; для просмотра соседних карт щелкайте зеленые стрелки.


METAR-TAF: